Time;durP1;ratioP1;P1;durP2;ratioP2;P2;SDS_P1;SDS_P2;PMS_P1;PMS_P2;Temp;Humidity;BMP_temperature;BMP_pressure;BME280_temperature;BME280_humidity;BME280_pressure;Samples;Min_cycle;Max_cycle;Signal;HPM_P1;HPM_P2
2020/12/11 08:59:23;;;;;;;6.97;6.20;;;5.60;99.90;;;;;;2942825;23;20500;-84
2020/12/11 09:14:02;;;;;;;5.87;3.57;;;6.00;99.90;;;;;;5019794;28;20270;-85
2020/12/11 16:31:53;;;;;;;9.20;6.60;;;7.90;99.90;;;;;;4987505;28;20284;-89
2020/12/11 16:34:22;;;;;;;9.80;6.80;;;7.90;99.90;;;;;;4984239;28;20240;-92
2020/12/11 16:36:49;;;;;;;7.47;6.80;;;7.80;99.90;;;;;;4978378;28;20236;-94
2020/12/11 16:39:15;;;;;;;12.47;6.80;;;7.80;99.90;;;;;;4978041;28;20209;-96
2020/12/11 16:41:44;;;;;;;11.63;7.63;;;7.80;99.90;;;;;;4978247;28;20212;-95
2020/12/11 16:44:15;;;;;;;10.87;7.27;;;7.90;99.90;;;;;;4977761;28;20660;-96
2020/12/11 16:46:41;;;;;;;9.87;8.13;;;7.90;99.90;;;;;;4977036;28;20225;-96
2020/12/11 16:49:14;;;;;;;11.03;7.43;;;7.90;99.90;;;;;;4977764;28;20291;-96
2020/12/11 16:51:40;;;;;;;12.30;9.07;;;7.90;99.90;;;;;;4977753;28;20657;-96
2020/12/11 16:54:07;;;;;;;13.73;8.33;;;7.90;99.90;;;;;;4977674;28;20261;-95
2020/12/11 16:56:33;;;;;;;10.23;8.30;;;7.90;99.90;;;;;;4960493;28;20233;-96
2020/12/11 16:59:03;;;;;;;9.33;8.13;;;7.80;99.90;;;;;;4978045;28;20296;-96
2020/12/11 17:01:32;;;;;;;12.43;8.30;;;7.80;99.90;;;;;;4978889;28;20193;-96
2020/12/11 17:04:02;;;;;;;10.90;9.30;;;7.80;99.90;;;;;;4979281;28;20320;-93
2020/12/11 17:06:38;;;;;;;13.47;9.20;;;8.00;99.90;;;;;;4977795;28;20708;-96
2020/12/11 17:09:11;;;;;;;15.40;9.83;;;8.10;99.90;;;;;;4977123;28;20221;-94
2020/12/11 17:11:37;;;;;;;15.27;10.30;;;8.20;99.90;;;;;;4977607;28;20633;-96
2020/12/11 17:14:04;;;;;;;13.47;11.90;;;8.20;99.90;;;;;;4977806;28;20229;-94
2020/12/11 17:16:31;;;;;;;12.77;10.67;;;8.10;99.90;;;;;;4977555;28;20697;-95
2020/12/11 17:18:57;;;;;;;16.53;14.70;;;8.10;99.90;;;;;;4978355;28;20201;-94
2020/12/11 17:21:25;;;;;;;16.20;12.63;;;8.10;99.90;;;;;;4979786;28;20209;-92
2020/12/11 17:23:52;;;;;;;15.67;12.27;;;8.20;99.90;;;;;;4976653;28;20217;-93
2020/12/11 17:26:24;;;;;;;15.53;13.23;;;8.10;99.90;;;;;;4976741;28;20239;-94
2020/12/11 17:28:54;;;;;;;19.00;12.53;;;8.20;99.90;;;;;;4977241;28;20557;-94
2020/12/11 17:31:26;;;;;;;23.70;13.43;;;8.20;99.90;;;;;;4976570;28;20232;-92
2020/12/11 17:33:57;;;;;;;14.83;12.73;;;8.30;99.90;;;;;;4976738;28;20213;-92
2020/12/11 17:36:24;;;;;;;14.23;12.57;;;8.40;99.90;;;;;;4976794;28;20255;-93
2020/12/11 17:38:50;;;;;;;18.97;14.70;;;8.40;99.90;;;;;;4977479;28;20625;-93
2020/12/11 17:41:18;;;;;;;18.00;13.83;;;8.40;99.90;;;;;;4977558;28;20664;-91
2020/12/11 17:43:44;;;;;;;16.90;14.20;;;8.50;99.90;;;;;;4977688;28;20316;-91
2020/12/11 17:46:14;;;;;;;21.07;13.83;;;8.50;99.90;;;;;;4977073;28;20236;-92
2020/12/11 17:48:41;;;;;;;21.57;14.73;;;8.50;99.90;;;;;;4976505;28;20220;-93
2020/12/11 17:51:07;;;;;;;16.07;14.07;;;8.50;99.90;;;;;;4976732;28;20194;-94
2020/12/11 17:53:34;;;;;;;19.00;13.57;;;8.50;99.90;;;;;;4959512;28;20218;-93
2020/12/11 17:59:06;;;;;;;18.97;14.53;;;8.70;99.90;;;;;;5010305;23;20307;-92
2020/12/11 18:01:33;;;;;;;17.73;13.80;;;8.60;99.90;;;;;;4976227;28;20213;-92
2020/12/11 18:03:59;;;;;;;19.63;14.47;;;8.50;99.90;;;;;;4959320;28;20232;-92
2020/12/11 18:06:30;;;;;;;18.20;14.17;;;8.50;99.90;;;;;;4968527;28;20322;-93
2020/12/11 18:08:57;;;;;;;17.17;15.13;;;8.60;99.90;;;;;;4957383;29;20620;-92
2020/12/11 18:11:27;;;;;;;17.47;14.57;;;8.60;99.90;;;;;;4956505;29;20213;-92
2020/12/11 18:13:53;;;;;;;18.63;15.53;;;8.60;99.90;;;;;;4956250;29;20210;-93
2020/12/11 18:16:21;;;;;;;19.40;15.10;;;8.60;99.90;;;;;;4939967;29;20226;-92
2020/12/11 18:18:47;;;;;;;21.37;16.00;;;8.70;99.90;;;;;;4939484;29;20202;-92
2020/12/11 18:21:14;;;;;;;20.33;15.60;;;8.80;99.90;;;;;;4939821;29;20214;-92
2020/12/11 18:23:41;;;;;;;20.37;15.23;;;8.80;99.90;;;;;;4956773;29;20233;-92
2020/12/11 18:26:09;;;;;;;21.90;16.57;;;8.70;99.90;;;;;;4956876;28;20229;-92
2020/12/11 18:28:36;;;;;;;24.17;15.60;;;8.80;99.90;;;;;;4956449;29;20575;-92
2020/12/11 18:31:03;;;;;;;22.30;16.20;;;8.80;99.90;;;;;;4956813;29;20209;-92
2020/12/11 18:33:31;;;;;;;24.00;16.63;;;8.80;99.90;;;;;;4956335;29;20190;-92
2020/12/11 18:35:58;;;;;;;20.33;16.20;;;8.70;99.90;;;;;;4956571;28;20226;-93
2020/12/11 18:38:27;;;;;;;21.03;15.50;;;8.80;99.90;;;;;;4956096;29;20201;-92
2020/12/11 18:40:53;;;;;;;22.33;16.70;;;8.80;99.90;;;;;;4956372;29;20293;-93
2020/12/11 18:43:19;;;;;;;20.17;15.60;;;8.70;99.90;;;;;;4956122;29;20218;-92
2020/12/11 18:45:46;;;;;;;20.70;15.30;;;8.70;99.90;;;;;;4956325;28;20198;-91
2020/12/11 18:48:13;;;;;;;21.40;15.97;;;8.70;99.90;;;;;;4955985;29;20575;-93
2020/12/11 18:50:40;;;;;;;20.37;16.47;;;8.80;99.90;;;;;;4956994;29;20209;-92
2020/12/11 18:53:07;;;;;;;21.93;16.53;;;8.70;99.90;;;;;;4939109;29;20213;-92
2020/12/11 18:55:45;;;;;;;24.17;16.50;;;8.70;99.90;;;;;;4956210;28;20198;-92
2020/12/11 18:58:11;;;;;;;23.03;17.00;;;8.60;99.90;;;;;;4955640;29;20284;-91
2020/12/11 19:00:38;;;;;;;24.33;16.37;;;8.70;99.90;;;;;;4955877;29;20605;-92
2020/12/11 19:03:05;;;;;;;25.63;17.17;;;8.70;99.90;;;;;;4956314;29;20210;-91
2020/12/11 19:05:31;;;;;;;21.97;16.20;;;8.60;99.90;;;;;;4955938;28;20206;-92
2020/12/11 19:07:58;;;;;;;19.77;17.00;;;8.60;99.90;;;;;;4956104;29;20214;-91
2020/12/11 19:10:25;;;;;;;19.40;16.30;;;8.70;99.90;;;;;;4955848;29;20216;-92
2020/12/11 19:12:53;;;;;;;17.93;16.03;;;8.70;99.90;;;;;;4938786;29;20593;-92
2020/12/11 19:15:20;;;;;;;21.17;16.63;;;8.80;99.90;;;;;;4939122;29;20248;-92
2020/12/11 19:17:46;;;;;;;19.13;15.87;;;8.80;99.90;;;;;;4955841;28;20237;-92
2020/12/11 19:20:13;;;;;;;20.27;16.33;;;8.80;99.90;;;;;;4939085;29;20217;-91
2020/12/11 19:22:39;;;;;;;20.97;16.60;;;8.90;99.90;;;;;;4938557;29;20202;-91
2020/12/11 19:25:07;;;;;;;19.17;16.10;;;8.80;99.90;;;;;;4956281;29;20723;-92
2020/12/11 19:27:33;;;;;;;20.67;15.90;;;8.80;99.90;;;;;;4955439;28;20237;-92
2020/12/11 19:30:00;;;;;;;20.90;16.30;;;8.90;99.90;;;;;;4938765;29;20661;-92
2020/12/11 19:32:27;;;;;;;20.13;15.53;;;8.80;99.90;;;;;;4955503;29;20194;-91
2020/12/11 19:34:53;;;;;;;17.30;14.20;;;8.80;99.90;;;;;;4955814;29;20198;-91
2020/12/11 19:37:20;;;;;;;17.40;15.20;;;8.90;99.90;;;;;;4956210;28;20225;-91
2020/12/11 19:39:46;;;;;;;15.53;13.33;;;8.80;99.90;;;;;;4939096;29;20220;-91
2020/12/11 19:42:13;;;;;;;17.17;14.07;;;8.80;99.90;;;;;;4955324;29;20668;-91
2020/12/11 19:44:39;;;;;;;17.57;13.40;;;8.80;99.90;;;;;;4956102;29;20596;-91
2020/12/11 19:47:06;;;;;;;18.30;14.07;;;8.90;99.90;;;;;;4938702;29;20237;-92
2020/12/11 19:49:32;;;;;;;20.07;13.83;;;9.10;99.90;;;;;;4955456;29;20658;-92
2020/12/11 19:52:06;;;;;;;19.27;13.83;;;9.10;99.90;;;;;;4955868;29;20586;-92
2020/12/11 19:54:33;;;;;;;16.87;14.17;;;9.10;99.90;;;;;;4955317;29;20297;-92
2020/12/11 19:57:00;;;;;;;15.13;13.10;;;8.90;99.90;;;;;;4938277;29;20296;-91
2020/12/11 19:59:28;;;;;;;19.33;14.17;;;8.90;99.90;;;;;;4938179;29;20209;-92
2020/12/11 20:01:54;;;;;;;20.73;14.40;;;8.90;99.90;;;;;;4938786;29;20210;-92
2020/12/11 20:04:24;;;;;;;18.90;14.07;;;8.90;99.90;;;;;;4955795;29;20232;-91
2020/12/11 20:07:03;;;;;;;20.50;15.33;;;9.00;99.90;;;;;;4956308;28;20230;-89
2020/12/11 20:09:36;;;;;;;22.63;15.63;;;9.10;99.90;;;;;;4955586;29;20264;-91
2020/12/11 20:12:03;;;;;;;19.17;15.43;;;9.00;99.90;;;;;;4938384;29;20257;-91
2020/12/11 20:14:30;;;;;;;17.77;15.57;;;9.00;99.90;;;;;;4955674;29;20220;-93
2020/12/11 20:16:57;;;;;;;17.87;15.40;;;9.00;99.90;;;;;;4938669;29;20568;-92
2020/12/11 20:19:24;;;;;;;20.23;15.17;;;9.00;99.90;;;;;;4938666;29;20684;-91
2020/12/11 20:21:50;;;;;;;20.50;15.07;;;8.90;99.90;;;;;;4957199;28;20209;-91
2020/12/11 20:24:16;;;;;;;17.00;14.40;;;9.00;99.90;;;;;;4941934;29;20225;-92
2020/12/11 20:26:43;;;;;;;19.17;14.23;;;9.00;99.90;;;;;;4958264;28;20728;-91
2020/12/11 20:29:10;;;;;;;20.33;15.47;;;9.00;99.90;;;;;;4958806;29;20202;-91
2020/12/11 20:31:37;;;;;;;18.03;14.73;;;9.00;99.90;;;;;;4958788;29;20205;-91
2020/12/11 20:34:03;;;;;;;20.47;15.20;;;9.00;99.90;;;;;;4941612;29;20217;-91
2020/12/11 20:36:29;;;;;;;18.07;15.47;;;9.00;99.90;;;;;;4958548;28;20234;-91
2020/12/11 20:38:56;;;;;;;19.37;15.07;;;9.10;99.90;;;;;;4958660;29;20206;-90
2020/12/11 20:41:22;;;;;;;20.77;15.50;;;9.10;99.90;;;;;;4958676;29;20568;-91
2020/12/11 20:43:49;;;;;;;21.47;15.47;;;9.10;99.90;;;;;;4941280;29;20233;-91
2020/12/11 20:46:15;;;;;;;23.47;15.83;;;9.00;99.90;;;;;;4958529;28;20236;-92
2020/12/11 20:48:43;;;;;;;20.63;15.53;;;9.00;99.90;;;;;;4959174;29;20210;-93
2020/12/11 20:51:09;;;;;;;20.47;16.17;;;8.90;99.90;;;;;;4958533;29;20281;-91
2020/12/11 20:53:35;;;;;;;19.80;15.73;;;9.00;99.90;;;;;;4958073;29;20320;-92
2020/12/11 20:56:02;;;;;;;23.93;17.30;;;9.00;99.90;;;;;;4939279;29;20230;-91
2020/12/11 20:58:28;;;;;;;20.90;16.53;;;9.00;99.90;;;;;;4960791;28;20225;-91
2020/12/11 21:00:55;;;;;;;26.60;17.33;;;9.10;99.90;;;;;;4958282;28;20216;-92
2020/12/11 21:03:21;;;;;;;23.10;16.60;;;9.10;99.90;;;;;;4957894;29;20213;-91
2020/12/11 21:05:49;;;;;;;20.07;16.50;;;9.10;99.90;;;;;;4958472;28;20697;-91
2020/12/11 21:08:16;;;;;;;22.43;16.50;;;9.00;99.90;;;;;;4958283;29;20212;-92
2020/12/11 21:10:43;;;;;;;22.90;17.27;;;9.10;99.90;;;;;;4958116;29;20198;-91
2020/12/11 21:13:10;;;;;;;20.27;16.47;;;8.90;99.90;;;;;;4957935;29;20214;-91
2020/12/11 21:15:36;;;;;;;23.87;18.10;;;8.90;99.90;;;;;;4940940;28;20218;-90
2020/12/11 21:18:02;;;;;;;28.90;18.77;;;9.00;99.90;;;;;;4958747;29;20213;-91
2020/12/11 21:20:29;;;;;;;27.37;18.73;;;9.10;99.90;;;;;;4957471;29;20224;-91
2020/12/11 21:22:56;;;;;;;28.40;19.47;;;9.10;99.90;;;;;;4941191;29;20208;-91
2020/12/11 21:25:22;;;;;;;27.50;18.93;;;9.20;99.90;;;;;;4957328;29;20233;-91
2020/12/11 21:27:49;;;;;;;28.50;19.70;;;9.10;99.90;;;;;;4957907;28;20240;-93
2020/12/11 21:30:18;;;;;;;29.83;19.93;;;9.10;99.90;;;;;;4957599;29;20194;-90
2020/12/11 21:32:48;;;;;;;26.47;20.03;;;9.20;99.90;;;;;;4957178;28;20210;-90
2020/12/11 21:35:20;;;;;;;27.63;18.57;;;9.20;99.90;;;;;;4957340;29;20214;-91
2020/12/11 21:37:48;;;;;;;28.63;19.20;;;9.10;99.90;;;;;;4941528;29;20280;-94
2020/12/11 21:40:16;;;;;;;25.37;19.27;;;9.10;99.90;;;;;;4961159;29;20309;-94
2020/12/11 21:42:43;;;;;;;25.13;18.70;;;9.10;99.90;;;;;;4960018;29;20224;-94
2020/12/11 21:45:10;;;;;;;24.53;17.67;;;9.10;99.90;;;;;;4958938;29;20241;-93
2020/12/11 21:47:36;;;;;;;26.60;18.67;;;9.10;99.90;;;;;;4958607;28;20607;-95
2020/12/11 21:50:05;;;;;;;23.83;17.90;;;9.20;99.90;;;;;;4940523;29;20206;-94
2020/12/11 21:52:32;;;;;;;23.83;17.97;;;9.00;99.90;;;;;;4957391;29;20238;-95
2020/12/11 21:54:58;;;;;;;22.77;17.67;;;8.90;99.90;;;;;;4958043;29;20214;-94
2020/12/11 21:57:25;;;;;;;27.30;18.43;;;9.00;99.90;;;;;;4956794;28;20251;-94
2020/12/11 21:59:55;;;;;;;21.37;16.63;;;9.00;99.90;;;;;;4957296;29;20216;-93
2020/12/11 22:02:24;;;;;;;22.20;17.27;;;9.10;99.90;;;;;;4957521;29;20214;-94
2020/12/11 22:04:51;;;;;;;21.93;16.53;;;9.10;99.90;;;;;;4956551;29;20229;-94
2020/12/11 22:07:17;;;;;;;22.53;17.53;;;9.00;99.90;;;;;;4940338;29;20230;-94
2020/12/11 22:09:44;;;;;;;21.33;17.63;;;9.10;99.90;;;;;;4939935;29;20212;-93
2020/12/11 22:12:10;;;;;;;25.63;17.93;;;9.30;99.90;;;;;;4956903;29;20215;-94
2020/12/11 22:14:37;;;;;;;21.77;16.27;;;9.20;99.90;;;;;;4956862;29;20214;-94
2020/12/11 22:17:04;;;;;;;21.23;17.40;;;9.20;99.90;;;;;;4957242;28;20230;-94
2020/12/11 22:19:30;;;;;;;23.17;17.13;;;9.20;99.90;;;;;;4957706;29;20220;-94
2020/12/11 22:21:57;;;;;;;21.97;17.77;;;9.20;99.90;;;;;;4957189;29;20212;-95
2020/12/11 22:24:31;;;;;;;24.50;18.10;;;9.20;99.90;;;;;;4939491;29;20230;-93
2020/12/11 22:26:57;;;;;;;21.93;18.20;;;9.30;99.90;;;;;;4975847;28;20232;-94
2020/12/11 22:29:23;;;;;;;22.50;17.00;;;9.20;99.90;;;;;;4975975;28;20213;-94
2020/12/11 22:31:50;;;;;;;25.47;17.97;;;9.20;99.90;;;;;;4975790;28;20212;-94
2020/12/11 22:34:17;;;;;;;28.85;23.85;;;9.10;99.90;;;;;;4958167;28;20435;-93
2020/12/11 22:36:43;;;;;;;23.23;19.30;;;9.20;99.90;;;;;;4976253;28;20306;-94
2020/12/11 22:39:09;;;;;;;25.03;18.37;;;9.20;99.90;;;;;;4975818;28;20213;-94
2020/12/11 22:41:36;;;;;;;24.93;17.90;;;9.10;99.90;;;;;;4975150;28;20209;-94
2020/12/11 22:44:03;;;;;;;24.77;18.47;;;9.10;99.90;;;;;;4958405;28;20224;-94
2020/12/11 22:46:29;;;;;;;23.80;18.60;;;9.10;99.90;;;;;;4975651;28;20245;-94
2020/12/11 22:48:57;;;;;;;29.07;18.40;;;9.10;99.90;;;;;;4975654;28;20320;-94
2020/12/11 22:51:24;;;;;;;22.77;18.30;;;9.10;99.90;;;;;;4958545;28;20193;-93
2020/12/11 22:53:51;;;;;;;25.90;18.27;;;9.00;99.90;;;;;;4975818;28;20193;-95
2020/12/11 22:56:19;;;;;;;28.80;17.90;;;9.10;99.90;;;;;;4975149;28;20225;-93
2020/12/11 22:58:47;;;;;;;23.57;17.93;;;9.00;99.90;;;;;;4975297;28;20351;-94
2020/12/11 23:01:13;;;;;;;23.00;18.53;;;8.90;99.90;;;;;;4975407;28;20252;-93
2020/12/11 23:03:40;;;;;;;23.37;17.60;;;8.90;99.90;;;;;;4975832;28;20209;-93
2020/12/11 23:06:09;;;;;;;27.57;18.03;;;8.90;99.90;;;;;;4975397;28;20243;-96
2020/12/11 23:08:36;;;;;;;23.47;18.43;;;8.90;99.90;;;;;;4957992;28;20209;-95
2020/12/11 23:11:03;;;;;;;26.87;19.37;;;8.80;99.90;;;;;;4975255;28;20201;-95
2020/12/11 23:13:29;;;;;;;23.27;17.90;;;8.70;99.90;;;;;;4975753;28;20256;-92
2020/12/11 23:15:57;;;;;;;26.27;17.37;;;8.60;99.90;;;;;;4955844;28;20236;-91
2020/12/11 23:18:25;;;;;;;28.63;18.37;;;8.70;99.90;;;;;;4956600;29;20297;-92
2020/12/11 23:20:52;;;;;;;28.23;18.93;;;8.70;99.90;;;;;;4956263;29;20257;-93
2020/12/11 23:23:22;;;;;;;28.67;19.27;;;8.80;99.90;;;;;;4955689;29;20296;-91
2020/12/11 23:25:49;;;;;;;26.20;18.90;;;8.80;99.90;;;;;;4955546;28;20247;-92
2020/12/11 23:28:15;;;;;;;27.37;18.07;;;8.70;99.90;;;;;;4956893;29;20206;-94
2020/12/11 23:30:41;;;;;;;24.97;17.80;;;8.70;99.90;;;;;;4955802;29;20231;-95
2020/12/11 23:33:08;;;;;;;24.93;18.63;;;8.70;99.90;;;;;;4955650;29;20206;-94
2020/12/11 23:35:34;;;;;;;25.13;19.23;;;8.80;99.90;;;;;;4955503;28;20213;-94
2020/12/11 23:38:00;;;;;;;23.73;18.20;;;8.80;99.90;;;;;;4955880;29;20210;-94
2020/12/11 23:40:28;;;;;;;24.57;18.20;;;8.80;99.90;;;;;;4955774;29;20206;-95
2020/12/11 23:42:54;;;;;;;28.30;19.50;;;8.90;99.90;;;;;;4956112;29;20662;-95
2020/12/11 23:45:21;;;;;;;24.67;18.23;;;9.00;99.90;;;;;;4956419;29;20229;-94
2020/12/11 23:47:47;;;;;;;28.20;18.80;;;9.10;99.90;;;;;;4955554;28;20244;-94
2020/12/11 23:50:13;;;;;;;25.30;18.33;;;9.00;99.90;;;;;;4955929;29;20213;-95
2020/12/11 23:52:40;;;;;;;27.03;19.70;;;9.00;99.90;;;;;;4938634;29;20206;-96
2020/12/11 23:55:06;;;;;;;26.87;19.50;;;8.90;99.90;;;;;;4956525;28;20298;-94
2020/12/11 23:57:35;;;;;;;24.60;18.30;;;9.00;99.90;;;;;;4959133;28;20716;-95
